ホワイトホース の空港の天気 - METARとTAF

ホワイトホース国際空港 ( CYXY / YXY ) - カナダ ユーコン準州ホワイトホース
飛行場実況気象(Metar)
観測時間11/26 23:00 PST (11/27 07:00 UTC)
風向・風速北北西 4m/s
視程9650m
天気現象弱い雪
少しの雲 雲底高度 610m
全天を覆う雲 雲底高度 940m
気温-7℃
湿度73%
気圧1018.4hPa
METARCYXY 270700Z 34008KT 6SM -SN FEW020 OVC031 M07/M11 A2992 RMK SC2SC6 SLP184
過去の天気等 Google飛行場航空写真 Wunderground天気予報

過去48時間のMETAR

飛行場予報(TAF)
発表時間: 11/26 21:40 PST (11/27 05:40 UTC)
予報対象時間: 26日22時 PST ~ 27日10時 PST
風向・風速北北西 4m/s
視程10km以上
天気現象弱い雪
全天の4割程度の雲 雲底高度 610m
全天を覆う雲 雲底高度 1220m
26日22時 PST ~ 27日6時 PST に一時的に
視程4830m
天気現象弱い雪
全天の8割程度の雲 雲底高度 610m
27日6時 PST から
風向・風速北北西 4m/s
視程1610m
天気現象弱い雪
全天を覆う雲 雲底高度 460m
27日6時 PST ~ 27日10時 PST に一時的に
視程10km以上
天気現象弱い雪
全天の4割程度の雲 雲底高度 460m
全天を覆う雲 雲底高度 1220m
TAF CYXY 270540Z 2706/2718 34007KT P6SM -SN SCT020 OVC040
TEMPO 2706/2714 3SM -SN BKN020
FM271400 34008KT 1SM -SN OVC015
TEMPO 2714/2718 P6SM -SN SCT015 OVC040 RMK NXT FCST BY 271200Z